Time;durP1;ratioP1;P1;durP2;ratioP2;P2;SDS_P1;SDS_P2;PMS_P1;PMS_P2;Temp;Humidity;BMP_temperature;BMP_pressure;BME280_temperature;BME280_humidity;BME280_pressure;Samples;Min_cycle;Max_cycle;Signal;HPM_P1;HPM_P2
2022/04/26 03:36:58;;;;;;;12.07;8.98;;;;;;;;;;5078987;28;20483;-90
2022/04/26 03:39:24;;;;;;;7.88;6.57;;;;;;;;;;5078573;28;20066;-90
2022/04/26 03:41:50;;;;;;;11.35;8.43;;;;;;;;;;5078809;28;20031;-90
2022/04/26 03:44:16;;;;;;;8.35;6.45;;;;;;;;;;5078073;28;20028;-90
2022/04/26 03:46:42;;;;;;;8.65;6.18;;;;;;;;;;5086729;28;20120;-91
2022/04/26 03:49:08;;;;;;;7.30;5.95;;;;;;;;;;5089232;28;20040;-90
2022/04/26 03:51:34;;;;;;;8.80;6.95;;;;;;;;;;5060712;28;20031;-94
2022/04/26 03:54:00;;;;;;;9.10;6.32;;;;;;;;;;5078834;28;20020;-93
2022/04/26 03:56:26;;;;;;;11.35;5.97;;;;;;;;;;5078373;28;20032;-94
2022/04/26 03:58:52;;;;;;;7.78;5.82;;;;;;;;;;5060828;28;20111;-94
2022/04/26 04:01:19;;;;;;;7.68;5.93;;;;;;;;;;5078358;28;20035;-94
2022/04/26 04:03:45;;;;;;;8.35;5.43;;;;;;;;;;5078290;28;20013;-94
2022/04/26 04:06:11;;;;;;;7.53;5.55;;;;;;;;;;5078447;28;20089;-94
2022/04/26 04:08:37;;;;;;;6.93;5.55;;;;;;;;;;5078476;28;20028;-93
2022/04/26 04:11:03;;;;;;;7.97;5.78;;;;;;;;;;5078101;28;20021;-94
2022/04/26 04:13:29;;;;;;;7.65;5.65;;;;;;;;;;5077880;28;20052;-94
2022/04/26 04:15:55;;;;;;;9.95;6.38;;;;;;;;;;5077683;28;20056;-92
2022/04/26 04:21:06;;;;;;;10.90;5.55;;;;;;;;;;5078242;28;20059;-94
2022/04/26 04:23:35;;;;;;;10.32;6.25;;;;;;;;;;5077774;28;20112;-93
2022/04/26 04:26:01;;;;;;;11.48;6.03;;;;;;;;;;5060316;28;20055;-94
2022/04/26 04:28:27;;;;;;;7.53;5.70;;;;;;;;;;5059968;28;20036;-93
2022/04/26 04:30:53;;;;;;;8.48;5.45;;;;;;;;;;5077771;28;20052;-92
2022/04/26 04:33:20;;;;;;;11.55;6.40;;;;;;;;;;5077393;28;20025;-94
2022/04/26 04:35:46;;;;;;;11.07;6.60;;;;;;;;;;5077881;28;20387;-94
2022/04/26 04:38:12;;;;;;;15.88;6.78;;;;;;;;;;5077835;28;20043;-93
2022/04/26 04:40:38;;;;;;;10.82;6.60;;;;;;;;;;5077809;28;20017;-94
2022/04/26 04:43:04;;;;;;;10.23;5.85;;;;;;;;;;5060120;28;20078;-95
2022/04/26 04:45:30;;;;;;;9.05;6.57;;;;;;;;;;5077879;28;20040;-93
2022/04/26 04:47:56;;;;;;;10.27;6.18;;;;;;;;;;5077571;28;20016;-94
2022/04/26 04:50:22;;;;;;;6.97;5.30;;;;;;;;;;5043744;28;20043;-94
2022/04/26 04:52:48;;;;;;;7.47;5.53;;;;;;;;;;5077530;28;20028;-93
2022/04/26 04:55:15;;;;;;;8.48;6.35;;;;;;;;;;5077581;28;20055;-93
2022/04/26 04:57:41;;;;;;;8.23;6.07;;;;;;;;;;5058750;28;20029;-93
2022/04/26 05:00:07;;;;;;;8.27;5.82;;;;;;;;;;5077730;28;20028;-93
2022/04/26 05:02:33;;;;;;;8.68;5.80;;;;;;;;;;5077436;28;20031;-93
2022/04/26 05:05:00;;;;;;;9.20;6.00;;;;;;;;;;5077643;28;20032;-94
2022/04/26 05:07:28;;;;;;;8.38;5.72;;;;;;;;;;5077501;28;20020;-94
2022/04/26 05:09:54;;;;;;;7.15;5.53;;;;;;;;;;5059509;28;20432;-95
2022/04/26 05:12:20;;;;;;;7.53;6.00;;;;;;;;;;5077199;28;20532;-94
2022/04/26 05:14:46;;;;;;;9.50;5.97;;;;;;;;;;5059214;28;20490;-95
2022/04/26 05:17:12;;;;;;;8.88;5.45;;;;;;;;;;5077056;28;20048;-94
2022/04/26 05:19:38;;;;;;;8.23;6.03;;;;;;;;;;5077635;28;20024;-93
2022/04/26 05:22:10;;;;;;;11.40;7.18;;;;;;;;;;5077315;28;20028;-94
2022/04/26 05:24:58;;;;;;;9.23;6.05;;;;;;;;;;5059678;28;20059;-94
2022/04/26 05:27:24;;;;;;;9.07;6.55;;;;;;;;;;5077210;28;20039;-94
2022/04/26 05:29:50;;;;;;;8.13;6.88;;;;;;;;;;5059517;28;20035;-93
2022/04/26 05:32:23;;;;;;;9.85;6.60;;;;;;;;;;5058833;28;20109;-94
2022/04/26 05:34:55;;;;;;;7.60;5.70;;;;;;;;;;5079560;28;20024;-93
2022/04/26 05:37:21;;;;;;;;;;;;;;;;;;5064171;28;20323;-94
2022/04/26 05:39:47;;;;;;;8.15;6.13;;;;;;;;;;5080959;28;19905;-93
2022/04/26 05:42:13;;;;;;;10.05;6.63;;;;;;;;;;5080593;28;20029;-93
2022/04/26 05:44:40;;;;;;;12.05;6.55;;;;;;;;;;5080628;28;20036;-94
2022/04/26 05:47:09;;;;;;;10.55;6.10;;;;;;;;;;5081097;28;20016;-95
2022/04/26 05:49:35;;;;;;;7.80;5.72;;;;;;;;;;5080597;28;20108;-93
2022/04/26 05:52:02;;;;;;;8.90;5.93;;;;;;;;;;5080583;28;20024;-94
2022/04/26 05:54:28;;;;;;;8.95;6.18;;;;;;;;;;5080712;28;20024;-94
2022/04/26 05:56:54;;;;;;;7.90;5.90;;;;;;;;;;5062728;28;20060;-93
2022/04/26 05:59:21;;;;;;;9.13;6.20;;;;;;;;;;5062993;28;20028;-94
2022/04/26 06:01:47;;;;;;;9.25;5.30;;;;;;;;;;5080816;28;20020;-95
2022/04/26 06:04:13;;;;;;;7.93;4.78;;;;;;;;;;5062743;28;20036;-94
2022/04/26 06:06:39;;;;;;;6.78;5.72;;;;;;;;;;5062968;28;20055;-92
2022/04/26 06:09:05;;;;;;;7.82;5.10;;;;;;;;;;5080596;28;20085;-93
2022/04/26 06:11:32;;;;;;;11.80;9.00;;;;;;;;;;5089173;28;20029;-95
2022/04/26 06:14:00;;;;;;;14.20;9.93;;;;;;;;;;5064236;28;20371;-90
2022/04/26 06:16:26;;;;;;;11.15;8.65;;;;;;;;;;5080106;28;20070;-91
2022/04/26 06:18:52;;;;;;;12.05;9.32;;;;;;;;;;5062360;28;20073;-91
2022/04/26 06:21:18;;;;;;;11.73;8.90;;;;;;;;;;5062088;28;20025;-90
2022/04/26 06:23:44;;;;;;;8.48;7.57;;;;;;;;;;5080157;28;20055;-90
2022/04/26 06:26:10;;;;;;;9.40;7.75;;;;;;;;;;5080100;28;20125;-90
2022/04/26 06:28:36;;;;;;;12.77;8.18;;;;;;;;;;5061875;28;20158;-90
2022/04/26 06:31:03;;;;;;;13.20;8.10;;;;;;;;;;5079810;28;20046;-90
2022/04/26 06:33:29;;;;;;;8.98;7.35;;;;;;;;;;5062066;28;20036;-91
2022/04/26 06:35:55;;;;;;;9.38;8.38;;;;;;;;;;5061681;28;20033;-89
2022/04/26 06:38:24;;;;;;;10.93;7.80;;;;;;;;;;5080018;28;20024;-90
2022/04/26 06:40:51;;;;;;;11.50;8.70;;;;;;;;;;5079749;28;20016;-91
2022/04/26 06:43:18;;;;;;;10.20;7.65;;;;;;;;;;5061480;28;20039;-91
2022/04/26 06:45:46;;;;;;;9.95;6.88;;;;;;;;;;5079375;28;20111;-90
2022/04/26 06:48:12;;;;;;;9.05;7.53;;;;;;;;;;5079987;28;20028;-91
2022/04/26 06:50:38;;;;;;;9.73;8.05;;;;;;;;;;5079817;28;20116;-90
2022/04/26 06:53:05;;;;;;;8.18;7.13;;;;;;;;;;5079527;28;20028;-90
2022/04/26 06:55:31;;;;;;;9.98;7.28;;;;;;;;;;5079557;28;20021;-91
2022/04/26 06:57:57;;;;;;;8.88;7.90;;;;;;;;;;5079606;28;20016;-90
2022/04/26 07:00:23;;;;;;;9.07;7.72;;;;;;;;;;5079525;28;20421;-91
2022/04/26 07:02:49;;;;;;;8.90;7.13;;;;;;;;;;5061803;28;20044;-91
2022/04/26 07:05:16;;;;;;;11.95;8.48;;;;;;;;;;5079623;28;20021;-90
2022/04/26 07:07:42;;;;;;;9.32;7.07;;;;;;;;;;5079687;28;20032;-91
2022/04/26 07:10:10;;;;;;;8.95;7.68;;;;;;;;;;5079227;28;20051;-91
2022/04/26 07:12:36;;;;;;;8.73;7.47;;;;;;;;;;5079147;28;20024;-92
2022/04/26 07:15:02;;;;;;;10.88;8.05;;;;;;;;;;5079031;28;20029;-90
2022/04/26 07:17:28;;;;;;;11.73;8.57;;;;;;;;;;5079149;28;20051;-90
2022/04/26 07:19:54;;;;;;;15.25;8.70;;;;;;;;;;5061318;28;20032;-91
2022/04/26 07:22:20;;;;;;;12.43;9.10;;;;;;;;;;5078933;28;20025;-91
2022/04/26 07:24:46;;;;;;;9.95;8.07;;;;;;;;;;5079158;28;20075;-91
2022/04/26 07:27:12;;;;;;;8.23;6.07;;;;;;;;;;5060537;28;20115;-91
2022/04/26 07:29:41;;;;;;;10.00;7.22;;;;;;;;;;5040848;28;20028;-90
2022/04/26 07:32:10;;;;;;;12.00;6.75;;;;;;;;;;5058474;28;20025;-90
2022/04/26 07:34:36;;;;;;;12.43;6.70;;;;;;;;;;5059103;28;20071;-90
2022/04/26 07:37:03;;;;;;;11.43;7.32;;;;;;;;;;5059209;28;20037;-90
2022/04/26 07:39:30;;;;;;;9.10;7.70;;;;;;;;;;5058769;28;20070;-91
2022/04/26 07:41:56;;;;;;;10.30;7.55;;;;;;;;;;5058791;28;20025;-91
2022/04/26 07:44:22;;;;;;;10.93;8.43;;;;;;;;;;5058610;28;20027;-91
2022/04/26 07:46:50;;;;;;;9.85;8.85;;;;;;;;;;5058957;28;20033;-91
2022/04/26 07:49:16;;;;;;;9.77;7.80;;;;;;;;;;5058656;28;20082;-91
2022/04/26 07:51:43;;;;;;;10.02;7.03;;;;;;;;;;5058569;28;20059;-92
2022/04/26 07:54:12;;;;;;;9.77;6.60;;;;;;;;;;5040741;28;20040;-90
2022/04/26 07:56:38;;;;;;;7.22;6.40;;;;;;;;;;5057753;28;20017;-91
2022/04/26 07:59:04;;;;;;;9.25;7.05;;;;;;;;;;5058550;28;20024;-90
2022/04/26 08:01:35;;;;;;;8.35;6.65;;;;;;;;;;5058032;28;20041;-90
2022/04/26 08:04:01;;;;;;;8.77;6.03;;;;;;;;;;5058616;28;20029;-91
2022/04/26 08:06:27;;;;;;;7.32;6.07;;;;;;;;;;5040774;28;20032;-91
2022/04/26 08:08:54;;;;;;;9.75;6.75;;;;;;;;;;5058290;28;20045;-90
2022/04/26 08:11:20;;;;;;;8.80;6.05;;;;;;;;;;5040539;28;20032;-90
2022/04/26 08:13:47;;;;;;;10.23;6.63;;;;;;;;;;5040536;28;20032;-90
2022/04/26 08:16:13;;;;;;;8.00;5.95;;;;;;;;;;5064419;28;20044;-92
2022/04/26 08:18:39;;;;;;;8.27;6.53;;;;;;;;;;5078137;28;20354;-90
2022/04/26 08:21:09;;;;;;;7.95;6.78;;;;;;;;;;5077875;28;20300;-90
2022/04/26 08:27:22;;;;;;;9.30;7.43;;;;;;;;;;5060298;28;20032;-89
2022/04/26 08:29:07;;;;;;;8.23;6.88;;;;;;;;;;5078209;28;20040;-90
2022/04/26 08:31:35;;;;;;;9.85;6.00;;;;;;;;;;5077641;28;20036;-91
2022/04/26 08:34:02;;;;;;;9.50;6.28;;;;;;;;;;5077896;28;20021;-90
2022/04/26 08:36:28;;;;;;;9.00;6.22;;;;;;;;;;5059834;28;20024;-91
2022/04/26 08:38:54;;;;;;;8.05;6.57;;;;;;;;;;5060083;28;20038;-90
2022/04/26 08:41:22;;;;;;;10.43;7.07;;;;;;;;;;5060335;28;20024;-90
2022/04/26 08:43:48;;;;;;;9.63;6.57;;;;;;;;;;5060019;28;20074;-89
2022/04/26 08:46:14;;;;;;;8.80;7.18;;;;;;;;;;5059513;28;20051;-90
2022/04/26 08:51:25;;;;;;;9.25;6.53;;;;;;;;;;5077694;28;20506;-91
2022/04/26 08:53:51;;;;;;;9.82;7.07;;;;;;;;;;5077685;28;20033;-90
2022/04/26 08:56:20;;;;;;;7.40;4.95;;;;;;;;;;5059338;28;20036;-90
2022/04/26 08:58:46;;;;;;;7.10;6.40;;;;;;;;;;5059648;28;20040;-90
2022/04/26 09:01:34;;;;;;;8.55;6.78;;;;;;;;;;5059790;28;20489;-91
2022/04/26 09:04:02;;;;;;;9.18;6.25;;;;;;;;;;5059837;28;20475;-95
2022/04/26 09:06:39;;;;;;;11.60;8.88;;;;;;;;;;5078562;28;20429;-92
2022/04/26 09:09:09;;;;;;;9.75;8.75;;;;;;;;;;5080181;28;20437;-90
2022/04/26 09:11:35;;;;;;;7.75;5.15;;;;;;;;;;5081291;28;20414;-90
2022/04/26 09:14:03;;;;;;;7.30;4.85;;;;;;;;;;5081494;28;20438;-91
2022/04/26 09:16:29;;;;;;;8.02;5.30;;;;;;;;;;5081076;28;20045;-91
2022/04/26 09:18:59;;;;;;;8.90;5.25;;;;;;;;;;5063622;28;20020;-90
2022/04/26 09:21:29;;;;;;;5.47;4.97;;;;;;;;;;5081288;28;20031;-90
2022/04/26 09:23:57;;;;;;;7.47;6.32;;;;;;;;;;5063954;28;20028;-91
2022/04/26 09:26:23;;;;;;;9.00;6.03;;;;;;;;;;5081239;28;20021;-91
2022/04/26 09:28:51;;;;;;;5.10;4.32;;;;;;;;;;5081289;28;20430;-90
2022/04/26 09:31:39;;;;;;;7.40;4.97;;;;;;;;;;5080885;28;20032;-91
2022/04/26 09:34:12;;;;;;;6.05;3.78;;;;;;;;;;5081072;28;20037;-90
2022/04/26 09:36:45;;;;;;;5.18;4.10;;;;;;;;;;5063303;28;20024;-90
2022/04/26 09:39:17;;;;;;;6.68;5.15;;;;;;;;;;5080972;28;20142;-90
2022/04/26 09:41:48;;;;;;;7.30;5.65;;;;;;;;;;5063451;28;20029;-90
2022/04/26 09:44:14;;;;;;;6.80;4.70;;;;;;;;;;5080956;28;20035;-91
2022/04/26 09:46:40;;;;;;;6.07;5.47;;;;;;;;;;5080604;28;20086;-91
2022/04/26 09:49:09;;;;;;;9.55;5.38;;;;;;;;;;5080864;28;20330;-90
2022/04/26 09:51:36;;;;;;;7.53;5.57;;;;;;;;;;5062663;28;20039;-91
2022/04/26 09:54:03;;;;;;;5.93;4.78;;;;;;;;;;5063137;28;20031;-92
2022/04/26 09:56:33;;;;;;;8.55;5.78;;;;;;;;;;5080725;28;20018;-93
2022/04/26 09:59:00;;;;;;;14.93;10.60;;;;;;;;;;5090684;28;20020;-94
2022/04/26 10:01:28;;;;;;;10.45;7.82;;;;;;;;;;5067935;28;20066;-94
2022/04/26 10:03:56;;;;;;;8.05;5.93;;;;;;;;;;5080282;28;20044;-93
2022/04/26 10:06:24;;;;;;;19.00;11.55;;;;;;;;;;5080432;28;20027;-94
2022/04/26 10:08:51;;;;;;;10.88;7.47;;;;;;;;;;5080126;28;20032;-93
2022/04/26 10:11:17;;;;;;;9.10;6.65;;;;;;;;;;5080464;28;20021;-94
2022/04/26 10:13:45;;;;;;;5.65;4.60;;;;;;;;;;5079673;28;20028;-94
2022/04/26 10:19:16;;;;;;;8.43;6.63;;;;;;;;;;5079883;28;20035;-93
2022/04/26 10:21:45;;;;;;;8.02;6.22;;;;;;;;;;5079827;28;20057;-93
2022/04/26 10:24:12;;;;;;;7.28;4.38;;;;;;;;;;5080640;28;20319;-93
2022/04/26 10:26:39;;;;;;;6.78;4.35;;;;;;;;;;5062178;28;20111;-92
2022/04/26 10:29:08;;;;;;;5.53;4.70;;;;;;;;;;5062268;28;20311;-93
2022/04/26 10:34:39;;;;;;;7.55;4.85;;;;;;;;;;5080017;28;20019;-91
2022/04/26 10:37:09;;;;;;;9.95;7.45;;;;;;;;;;5062585;28;20097;-91
2022/04/26 10:39:38;;;;;;;6.28;3.80;;;;;;;;;;5061805;28;20044;-92
2022/04/26 10:42:07;;;;;;;11.00;6.97;;;;;;;;;;5079568;28;20560;-93
2022/04/26 10:44:38;;;;;;;8.43;6.93;;;;;;;;;;5062086;28;20024;-92
2022/04/26 10:47:04;;;;;;;6.30;3.92;;;;;;;;;;5079673;28;20029;-92
2022/04/26 10:49:40;;;;;;;5.82;4.20;;;;;;;;;;5079741;28;20029;-91
2022/04/26 10:54:47;;;;;;;8.27;4.18;;;;;;;;;;5079322;28;20056;-92
2022/04/26 10:57:20;;;;;;;5.53;3.63;;;;;;;;;;5079920;28;20027;-92
2022/04/26 10:59:47;;;;;;;4.47;3.45;;;;;;;;;;5079401;28;20033;-91
2022/04/26 11:02:14;;;;;;;5.40;3.00;;;;;;;;;;5079465;28;20029;-92
2022/04/26 11:04:40;;;;;;;4.45;3.35;;;;;;;;;;5075462;28;20017;-91
2022/04/26 11:07:22;;;;;;;5.38;3.50;;;;;;;;;;5041906;28;20045;-90
2022/04/26 11:09:53;;;;;;;13.55;7.63;;;;;;;;;;5059260;28;20037;-91
2022/04/26 11:12:20;;;;;;;7.80;3.53;;;;;;;;;;5066343;28;20112;-92
2022/04/26 11:14:47;;;;;;;6.03;3.80;;;;;;;;;;5079263;28;20016;-92
2022/04/26 11:17:14;;;;;;;4.07;2.58;;;;;;;;;;5079081;28;20311;-90
2022/04/26 11:19:47;;;;;;;4.30;2.60;;;;;;;;;;5079103;28;20021;-94
2022/04/26 11:22:13;;;;;;;3.78;2.85;;;;;;;;;;5061683;28;20063;-91
2022/04/26 11:30:10;;;;;;;5.32;2.80;;;;;;;;;;5079301;28;20162;-91
2022/04/26 11:32:43;;;;;;;8.55;3.88;;;;;;;;;;5077598;28;20069;-92
2022/04/26 11:35:09;;;;;;;5.03;2.70;;;;;;;;;;5078800;28;20024;-90
2022/04/26 11:37:44;;;;;;;4.70;2.80;;;;;;;;;;5061122;28;20414;-92
2022/04/26 11:40:11;;;;;;;3.90;2.90;;;;;;;;;;5078737;28;20047;-91
2022/04/26 11:42:37;;;;;;;6.85;3.15;;;;;;;;;;5079011;28;20379;-92
2022/04/26 11:45:07;;;;;;;4.57;3.40;;;;;;;;;;5078704;28;20035;-92
2022/04/26 11:47:39;;;;;;;5.40;3.13;;;;;;;;;;5061053;28;20024;-91
2022/04/26 11:50:09;;;;;;;26.25;4.60;;;;;;;;;;5061324;28;20111;-91
2022/04/26 11:52:35;;;;;;;7.47;3.47;;;;;;;;;;5073380;28;20035;-91
2022/04/26 11:55:01;;;;;;;5.30;3.47;;;;;;;;;;5064345;28;20056;-92
2022/04/26 11:57:27;;;;;;;6.78;4.25;;;;;;;;;;5060494;28;20029;-93
2022/04/26 11:59:54;;;;;;;5.13;3.35;;;;;;;;;;5060813;28;20021;-92
2022/04/26 12:02:20;;;;;;;5.95;3.80;;;;;;;;;;5078196;28;20107;-91
2022/04/26 12:04:46;;;;;;;3.75;3.03;;;;;;;;;;5078359;28;20028;-91
2022/04/26 12:07:13;;;;;;;6.72;3.55;;;;;;;;;;5078463;28;20057;-91
2022/04/26 12:09:39;;;;;;;4.53;2.60;;;;;;;;;;5078274;28;20052;-92
2022/04/26 12:12:07;;;;;;;8.68;4.13;;;;;;;;;;5078295;28;20052;-92
2022/04/26 12:14:37;;;;;;;5.40;2.95;;;;;;;;;;5078204;28;20020;-91
2022/04/26 12:17:16;;;;;;;5.35;3.25;;;;;;;;;;5077999;28;20540;-92
2022/04/26 12:19:45;;;;;;;7.05;3.40;;;;;;;;;;5077546;28;20437;-92
2022/04/26 12:22:11;;;;;;;4.63;3.08;;;;;;;;;;5078140;28;20024;-92
2022/04/26 12:24:47;;;;;;;4.68;3.00;;;;;;;;;;5077721;28;20410;-93
2022/04/26 12:27:19;;;;;;;11.27;3.72;;;;;;;;;;5078016;28;20032;-92
2022/04/26 12:29:46;;;;;;;12.57;4.35;;;;;;;;;;5078228;28;20171;-92
2022/04/26 12:32:13;;;;;;;9.57;3.60;;;;;;;;;;5077622;28;20036;-92
2022/04/26 12:34:52;;;;;;;6.55;2.70;;;;;;;;;;5059698;28;20036;-92
2022/04/26 12:37:22;;;;;;;5.45;2.50;;;;;;;;;;5077872;28;20032;-92
2022/04/26 12:39:49;;;;;;;4.53;2.60;;;;;;;;;;5077879;28;20020;-92
2022/04/26 12:42:17;;;;;;;5.68;2.03;;;;;;;;;;5077629;28;20425;-92
2022/04/26 12:44:53;;;;;;;3.38;2.75;;;;;;;;;;5077418;28;20031;-92
2022/04/26 12:52:56;;;;;;;;;;;;;;;;;;5078129;28;20445;-92
2022/04/26 12:55:27;;;;;;;3.58;2.03;;;;;;;;;;5060153;28;19912;-91
2022/04/26 12:57:54;;;;;;;6.63;2.15;;;;;;;;;;5077537;28;20399;-93
2022/04/26 13:00:21;;;;;;;3.80;2.10;;;;;;;;;;5077702;28;20025;-92
2022/04/26 13:02:51;;;;;;;2.92;2.20;;;;;;;;;;5078006;28;20071;-92
2022/04/26 13:05:18;;;;;;;5.30;2.35;;;;;;;;;;5050322;28;20469;-89
2022/04/26 13:07:47;;;;;;;49.60;7.10;;;;;;;;;;5057119;28;20040;-91
2022/04/26 13:10:17;;;;;;;34.20;4.05;;;;;;;;;;5037753;28;20426;-90
2022/04/26 13:12:43;;;;;;;2.42;1.70;;;;;;;;;;5037693;28;20072;-90
2022/04/26 13:15:10;;;;;;;2.90;1.33;;;;;;;;;;5040898;28;20312;-90
2022/04/26 13:17:37;;;;;;;2.55;1.60;;;;;;;;;;5094155;28;20032;-91
2022/04/26 13:20:04;;;;;;;2.55;1.52;;;;;;;;;;5097652;28;20310;-90
2022/04/26 13:22:30;;;;;;;2.67;1.50;;;;;;;;;;5080132;28;20024;-89
2022/04/26 13:24:56;;;;;;;5.03;1.67;;;;;;;;;;5079776;28;20417;-91
2022/04/26 13:27:23;;;;;;;7.45;1.98;;;;;;;;;;5097739;28;20096;-90
2022/04/26 13:29:50;;;;;;;15.75;12.40;;;;;;;;;;5097621;28;20355;-91
2022/04/26 13:32:17;;;;;;;9.10;5.65;;;;;;;;;;5088245;28;20056;-91
2022/04/26 13:34:43;;;;;;;3.85;1.70;;;;;;;;;;5078244;28;20067;-89
2022/04/26 13:37:09;;;;;;;2.88;1.70;;;;;;;;;;5077281;28;20021;-90
2022/04/26 16:57:12;;;;;;;7.53;3.72;;;;;;;;;;5108101;27;20364;-89
2022/04/26 16:59:38;;;;;;;11.20;3.33;;;;;;;;;;5074869;28;20024;-88
2022/04/26 17:02:05;;;;;;;6.10;1.83;;;;;;;;;;5074877;28;20108;-89
2022/04/26 17:04:31;;;;;;;3.78;1.73;;;;;;;;;;5074075;28;20430;-89
2022/04/26 17:06:58;;;;;;;3.00;1.60;;;;;;;;;;5075162;28;20020;-89
2022/04/26 17:09:24;;;;;;;5.13;3.15;;;;;;;;;;5075259;28;20044;-90
2022/04/26 17:11:51;;;;;;;7.75;4.90;;;;;;;;;;5075105;28;20280;-89
2022/04/26 17:14:18;;;;;;;7.88;4.68;;;;;;;;;;5074694;28;20021;-88
2022/04/26 17:16:46;;;;;;;12.75;6.57;;;;;;;;;;5074768;28;20093;-88
2022/04/26 17:19:13;;;;;;;10.20;4.50;;;;;;;;;;5073762;28;20342;-89
2022/04/26 17:21:39;;;;;;;5.90;4.18;;;;;;;;;;5074660;28;20028;-89
2022/04/26 17:25:13;;;;;;;6.20;3.28;;;;;;;;;;5075214;28;20028;-89
2022/04/26 17:26:52;;;;;;;7.05;2.95;;;;;;;;;;5074616;28;20025;-90
2022/04/26 17:29:21;;;;;;;6.60;2.95;;;;;;;;;;5073448;28;20326;-90
2022/04/26 17:31:53;;;;;;;6.82;2.65;;;;;;;;;;5073189;28;20028;-90
2022/04/26 17:34:20;;;;;;;5.10;2.30;;;;;;;;;;5074336;28;20021;-90
2022/04/26 17:36:46;;;;;;;5.43;2.55;;;;;;;;;;5074309;28;20024;-90
2022/04/26 17:39:13;;;;;;;3.28;2.75;;;;;;;;;;5073372;28;20350;-89
2022/04/26 17:41:39;;;;;;;8.05;4.75;;;;;;;;;;5074246;28;20021;-89
2022/04/26 17:44:06;;;;;;;7.28;3.70;;;;;;;;;;5074339;28;20021;-88
2022/04/26 17:46:32;;;;;;;6.57;3.30;;;;;;;;;;5074168;28;20029;-88
2022/04/26 17:48:58;;;;;;;11.45;3.55;;;;;;;;;;5074183;28;20032;-89
2022/04/26 17:51:24;;;;;;;9.23;5.97;;;;;;;;;;5073103;28;20062;-89
2022/04/26 17:56:35;;;;;;;17.02;8.65;;;;;;;;;;5073837;28;20487;-89
2022/04/26 17:59:04;;;;;;;14.18;7.18;;;;;;;;;;5072701;28;20051;-88
2022/04/26 18:01:30;;;;;;;11.55;6.68;;;;;;;;;;5073532;28;20031;-88
2022/04/26 18:03:56;;;;;;;11.13;6.47;;;;;;;;;;5073587;28;20017;-89
2022/04/26 18:06:22;;;;;;;8.73;4.57;;;;;;;;;;5071224;28;20039;-89
2022/04/26 18:08:48;;;;;;;8.75;4.03;;;;;;;;;;5058998;28;20025;-88
2022/04/26 18:11:15;;;;;;;6.38;2.70;;;;;;;;;;5060424;28;20017;-89
2022/04/26 18:13:41;;;;;;;4.95;3.17;;;;;;;;;;5060432;28;20047;-89
2022/04/26 18:16:07;;;;;;;5.80;3.42;;;;;;;;;;5059357;28;20025;-89
2022/04/26 18:18:34;;;;;;;9.40;4.22;;;;;;;;;;5060176;28;20036;-88
2022/04/26 18:21:00;;;;;;;11.13;6.43;;;;;;;;;;5060357;28;20295;-89
2022/04/26 18:23:27;;;;;;;17.60;9.77;;;;;;;;;;5060066;28;20025;-89
2022/04/26 18:26:12;;;;;;;32.85;18.58;;;;;;;;;;5060094;28;20041;-88
2022/04/26 18:28:39;;;;;;;32.03;19.38;;;;;;;;;;5060028;28;20032;-89
2022/04/26 18:31:05;;;;;;;33.85;21.92;;;;;;;;;;5060305;28;20025;-89
2022/04/26 18:33:31;;;;;;;37.60;24.92;;;;;;;;;;5050605;28;20029;-90
2022/04/26 18:35:57;;;;;;;38.05;21.48;;;;;;;;;;5057351;28;20021;-89
2022/04/26 18:38:24;;;;;;;27.10;17.40;;;;;;;;;;5072319;28;20020;-90
2022/04/26 18:40:51;;;;;;;26.98;17.27;;;;;;;;;;5065918;28;20537;-90
2022/04/26 18:43:18;;;;;;;32.47;18.73;;;;;;;;;;5078563;28;20028;-89
2022/04/26 18:45:44;;;;;;;22.25;16.73;;;;;;;;;;5079101;28;20073;-91
2022/04/26 18:48:10;;;;;;;19.63;15.40;;;;;;;;;;5080028;28;20024;-90
2022/04/26 18:50:36;;;;;;;14.90;11.32;;;;;;;;;;5079887;28;20027;-90
2022/04/26 18:53:02;;;;;;;14.10;9.88;;;;;;;;;;5079750;28;20505;-90
2022/04/26 18:55:29;;;;;;;11.13;8.32;;;;;;;;;;5079053;28;20040;-90
2022/04/26 18:57:55;;;;;;;13.40;11.55;;;;;;;;;;5079588;28;20084;-90
2022/04/26 19:00:21;;;;;;;15.18;10.50;;;;;;;;;;5078571;28;20032;-90
2022/04/26 19:02:47;;;;;;;13.25;10.27;;;;;;;;;;5078717;28;20120;-90
2022/04/26 19:05:13;;;;;;;16.00;10.25;;;;;;;;;;5079633;28;20039;-89
2022/04/26 19:07:39;;;;;;;14.32;8.88;;;;;;;;;;5079457;28;20045;-90
2022/04/26 19:12:50;;;;;;;16.98;10.55;;;;;;;;;;5079569;28;20067;-90
2022/04/26 19:15:16;;;;;;;14.55;10.00;;;;;;;;;;5078591;28;20024;-89
2022/04/26 19:17:43;;;;;;;12.90;8.60;;;;;;;;;;5079507;28;20024;-89
2022/04/26 19:20:10;;;;;;;9.55;6.78;;;;;;;;;;5078461;28;20032;-90
2022/04/26 19:22:36;;;;;;;10.35;7.55;;;;;;;;;;5078419;28;20060;-90
2022/04/26 19:25:02;;;;;;;11.07;7.45;;;;;;;;;;5078696;28;20032;-90
2022/04/26 19:27:28;;;;;;;13.23;6.95;;;;;;;;;;5078409;28;20056;-90
2022/04/26 19:29:54;;;;;;;9.88;7.45;;;;;;;;;;5078833;28;20021;-90
2022/04/26 19:32:20;;;;;;;14.60;7.38;;;;;;;;;;5078841;28;20468;-89
2022/04/26 19:34:46;;;;;;;10.80;6.35;;;;;;;;;;5078935;28;20037;-91
2022/04/26 19:37:12;;;;;;;11.15;7.00;;;;;;;;;;5079034;28;20070;-89
2022/04/26 19:39:39;;;;;;;13.13;7.28;;;;;;;;;;5079013;28;20025;-89
2022/04/26 19:42:05;;;;;;;8.52;6.75;;;;;;;;;;5078325;28;20414;-88
2022/04/26 19:44:31;;;;;;;11.45;6.80;;;;;;;;;;5077182;28;20017;-89
2022/04/26 19:47:00;;;;;;;15.02;7.30;;;;;;;;;;5078434;28;20115;-88
2022/04/26 19:49:26;;;;;;;8.30;6.45;;;;;;;;;;5077720;28;20449;-89
2022/04/26 19:51:52;;;;;;;15.07;7.97;;;;;;;;;;5078459;28;20031;-89
2022/04/26 19:54:19;;;;;;;12.50;7.88;;;;;;;;;;5078533;28;20024;-89
2022/04/26 19:56:46;;;;;;;12.38;7.70;;;;;;;;;;5077254;28;20048;-89
2022/04/26 19:59:13;;;;;;;11.82;8.50;;;;;;;;;;5078297;28;20024;-88
2022/04/26 20:01:39;;;;;;;12.73;8.73;;;;;;;;;;5078087;28;20032;-88
2022/04/26 20:04:05;;;;;;;16.17;9.93;;;;;;;;;;5077522;28;20402;-89
2022/04/26 20:06:31;;;;;;;16.27;10.05;;;;;;;;;;5077261;28;20060;-89
2022/04/26 20:08:58;;;;;;;19.52;11.25;;;;;;;;;;5078314;28;20031;-90
2022/04/26 20:11:26;;;;;;;23.55;13.15;;;;;;;;;;5077096;28;20524;-89
2022/04/26 20:13:53;;;;;;;16.73;12.13;;;;;;;;;;5078041;28;20116;-88
2022/04/26 20:16:22;;;;;;;23.83;13.15;;;;;;;;;;5077799;28;20091;-88
2022/04/26 20:18:48;;;;;;;19.58;12.05;;;;;;;;;;5078061;28;20020;-89
2022/04/26 20:21:14;;;;;;;17.25;12.07;;;;;;;;;;5077714;28;20107;-89
2022/04/26 20:23:41;;;;;;;19.33;11.48;;;;;;;;;;5076755;28;20016;-89
2022/04/26 20:31:36;;;;;;;20.65;12.98;;;;;;;;;;5077817;28;20463;-89
2022/04/26 20:34:02;;;;;;;15.52;11.65;;;;;;;;;;5077769;28;20390;-89
2022/04/26 20:36:30;;;;;;;17.27;11.70;;;;;;;;;;5077796;28;20029;-89
2022/04/26 20:38:56;;;;;;;16.02;10.55;;;;;;;;;;5076779;28;20111;-89
2022/04/26 20:41:22;;;;;;;13.60;9.52;;;;;;;;;;5076941;28;20103;-89
2022/04/26 20:43:49;;;;;;;15.68;9.60;;;;;;;;;;5077690;28;20028;-88
2022/04/26 20:46:15;;;;;;;12.90;9.68;;;;;;;;;;5076770;28;20032;-89
2022/04/26 20:48:43;;;;;;;13.55;9.82;;;;;;;;;;5077759;28;20039;-88
2022/04/26 20:51:09;;;;;;;13.13;9.30;;;;;;;;;;5076887;28;20133;-89
2022/04/26 20:53:35;;;;;;;15.07;9.57;;;;;;;;;;5077334;28;20025;-88
2022/04/26 20:56:01;;;;;;;18.25;10.60;;;;;;;;;;5077070;28;20434;-89
2022/04/26 20:58:27;;;;;;;13.80;10.05;;;;;;;;;;5077868;28;20027;-89
2022/04/26 21:00:53;;;;;;;14.13;10.10;;;;;;;;;;5077803;28;20055;-89
2022/04/26 21:03:22;;;;;;;23.92;13.45;;;;;;;;;;5076922;28;20031;-89
2022/04/26 21:05:48;;;;;;;11.95;8.70;;;;;;;;;;5076656;28;20032;-89
2022/04/26 21:08:14;;;;;;;12.68;4.65;;;;;;;;;;5076849;28;20082;-89
2022/04/26 21:10:41;;;;;;;6.70;3.33;;;;;;;;;;5077331;28;20032;-88
2022/04/26 21:13:26;;;;;;;19.15;2.00;;;;;;;;;;5076633;28;20029;-89
2022/04/26 21:15:53;;;;;;;6.15;1.00;;;;;;;;;;5077715;28;20322;-88
2022/04/26 21:18:19;;;;;;;7.95;1.10;;;;;;;;;;5077329;28;20032;-89
2022/04/26 21:20:46;;;;;;;7.05;1.08;;;;;;;;;;5077386;28;20025;-89
2022/04/26 21:23:12;;;;;;;2.80;0.80;;;;;;;;;;5077325;28;20536;-89
2022/04/26 21:25:38;;;;;;;3.00;0.70;;;;;;;;;;5077665;28;20060;-89
2022/04/26 21:28:04;;;;;;;2.72;0.90;;;;;;;;;;5077264;28;20052;-88
2022/04/26 21:30:31;;;;;;;3.17;1.55;;;;;;;;;;5077345;28;20409;-88
2022/04/26 21:32:57;;;;;;;6.18;2.33;;;;;;;;;;5076947;28;20108;-89
2022/04/26 21:35:23;;;;;;;6.35;2.40;;;;;;;;;;5077145;28;20025;-88
2022/04/26 21:37:49;;;;;;;6.95;3.25;;;;;;;;;;5076192;28;20025;-88
2022/04/26 21:40:16;;;;;;;7.90;3.00;;;;;;;;;;5077086;28;20069;-88
2022/04/26 21:42:42;;;;;;;5.55;3.05;;;;;;;;;;5078778;28;20020;-89
2022/04/26 21:45:09;;;;;;;4.80;2.80;;;;;;;;;;5079796;28;20021;-89
2022/04/26 21:47:35;;;;;;;8.45;3.72;;;;;;;;;;5080885;28;20326;-86
2022/04/26 21:52:46;;;;;;;6.07;3.50;;;;;;;;;;5081118;28;20028;-89
2022/04/26 21:55:13;;;;;;;5.90;3.47;;;;;;;;;;5079646;28;20083;-87
2022/04/26 21:57:39;;;;;;;4.78;3.50;;;;;;;;;;5080733;28;20024;-88
2022/04/26 22:00:14;;;;;;;6.25;3.28;;;;;;;;;;5080620;28;20021;-88
2022/04/26 22:02:41;;;;;;;6.20;3.50;;;;;;;;;;5080349;28;20025;-88
2022/04/26 22:05:07;;;;;;;4.20;2.90;;;;;;;;;;5080527;28;20020;-88
2022/04/26 22:07:34;;;;;;;5.93;3.35;;;;;;;;;;5079544;28;20028;-88
2022/04/26 22:10:00;;;;;;;4.20;3.65;;;;;;;;;;5080389;28;20025;-88
2022/04/26 22:12:26;;;;;;;6.20;3.28;;;;;;;;;;5080300;28;20099;-88
2022/04/26 22:14:52;;;;;;;4.07;2.00;;;;;;;;;;5080307;28;20323;-88